sensor_id;sensor_type;location;lat;lon;timestamp;temperature;humidity
55785;DHT22;41709;52.536;5.688;2023-12-04T00:00:36;2.50;91.90
55785;DHT22;41709;52.536;5.688;2023-12-04T00:03:01;2.50;91.90
55785;DHT22;41709;52.536;5.688;2023-12-04T00:05:27;2.50;92.00
55785;DHT22;41709;52.536;5.688;2023-12-04T00:07:52;2.50;91.90
55785;DHT22;41709;52.536;5.688;2023-12-04T00:10:18;2.50;92.20
55785;DHT22;41709;52.536;5.688;2023-12-04T00:12:43;2.50;91.90
55785;DHT22;41709;52.536;5.688;2023-12-04T00:15:09;2.50;91.90
55785;DHT22;41709;52.536;5.688;2023-12-04T00:17:34;2.50;91.90
55785;DHT22;41709;52.536;5.688;2023-12-04T00:20:04;2.50;91.90
55785;DHT22;41709;52.536;5.688;2023-12-04T00:22:30;2.60;91.90
55785;DHT22;41709;52.536;5.688;2023-12-04T00:24:55;2.60;91.90
55785;DHT22;41709;52.536;5.688;2023-12-04T00:27:21;2.60;91.90
55785;DHT22;41709;52.536;5.688;2023-12-04T00:29:52;2.60;91.90
55785;DHT22;41709;52.536;5.688;2023-12-04T00:32:17;2.60;91.90
55785;DHT22;41709;52.536;5.688;2023-12-04T00:34:43;2.60;91.90
55785;DHT22;41709;52.536;5.688;2023-12-04T00:37:08;2.60;91.90
55785;DHT22;41709;52.536;5.688;2023-12-04T00:39:34;2.60;91.90
55785;DHT22;41709;52.536;5.688;2023-12-04T00:41:59;2.60;91.80
55785;DHT22;41709;52.536;5.688;2023-12-04T00:44:24;2.60;91.80
55785;DHT22;41709;52.536;5.688;2023-12-04T00:46:50;2.60;91.90
55785;DHT22;41709;52.536;5.688;2023-12-04T00:49:15;2.60;91.80
55785;DHT22;41709;52.536;5.688;2023-12-04T00:51:41;2.60;91.80
55785;DHT22;41709;52.536;5.688;2023-12-04T00:54:06;2.60;91.80
55785;DHT22;41709;52.536;5.688;2023-12-04T00:56:32;2.60;91.80
55785;DHT22;41709;52.536;5.688;2023-12-04T00:58:57;2.60;91.80
55785;DHT22;41709;52.536;5.688;2023-12-04T01:01:23;2.70;91.80
55785;DHT22;41709;52.536;5.688;2023-12-04T01:03:48;2.60;91.70
55785;DHT22;41709;52.536;5.688;2023-12-04T01:06:20;2.60;91.70
55785;DHT22;41709;52.536;5.688;2023-12-04T01:08:47;2.70;91.70
55785;DHT22;41709;52.536;5.688;2023-12-04T01:11:13;2.70;91.70
55785;DHT22;41709;52.536;5.688;2023-12-04T01:13:39;2.60;91.70
55785;DHT22;41709;52.536;5.688;2023-12-04T01:16:04;2.60;91.70
55785;DHT22;41709;52.536;5.688;2023-12-04T01:18:30;2.60;91.70
55785;DHT22;41709;52.536;5.688;2023-12-04T01:20:56;2.60;91.70
55785;DHT22;41709;52.536;5.688;2023-12-04T01:23:21;2.70;91.70
55785;DHT22;41709;52.536;5.688;2023-12-04T01:25:47;2.60;91.70
55785;DHT22;41709;52.536;5.688;2023-12-04T01:28:12;2.70;91.70
55785;DHT22;41709;52.536;5.688;2023-12-04T01:30:39;2.70;91.70
55785;DHT22;41709;52.536;5.688;2023-12-04T01:33:05;2.60;91.60
55785;DHT22;41709;52.536;5.688;2023-12-04T01:35:30;2.60;92.00
55785;DHT22;41709;52.536;5.688;2023-12-04T01:37:56;2.60;91.60
55785;DHT22;41709;52.536;5.688;2023-12-04T01:40:21;2.60;91.60
55785;DHT22;41709;52.536;5.688;2023-12-04T01:42:46;2.60;91.60
55785;DHT22;41709;52.536;5.688;2023-12-04T01:45:12;2.60;91.60
55785;DHT22;41709;52.536;5.688;2023-12-04T01:47:37;2.60;91.50
55785;DHT22;41709;52.536;5.688;2023-12-04T01:50:03;2.60;91.60
55785;DHT22;41709;52.536;5.688;2023-12-04T01:52:29;2.60;91.60
55785;DHT22;41709;52.536;5.688;2023-12-04T01:54:55;2.70;91.60
55785;DHT22;41709;52.536;5.688;2023-12-04T01:57:20;2.60;91.60
55785;DHT22;41709;52.536;5.688;2023-12-04T01:59:46;2.60;91.60
55785;DHT22;41709;52.536;5.688;2023-12-04T02:02:12;2.60;91.60
55785;DHT22;41709;52.536;5.688;2023-12-04T02:04:38;2.60;91.60
55785;DHT22;41709;52.536;5.688;2023-12-04T02:07:03;2.60;91.60
55785;DHT22;41709;52.536;5.688;2023-12-04T02:09:29;2.60;91.60
55785;DHT22;41709;52.536;5.688;2023-12-04T02:11:56;2.60;91.60
55785;DHT22;41709;52.536;5.688;2023-12-04T02:14:22;2.60;91.60
55785;DHT22;41709;52.536;5.688;2023-12-04T02:16:48;2.70;91.60
55785;DHT22;41709;52.536;5.688;2023-12-04T02:19:14;2.60;91.60
55785;DHT22;41709;52.536;5.688;2023-12-04T02:21:40;2.60;91.60
55785;DHT22;41709;52.536;5.688;2023-12-04T02:24:05;2.60;91.60
55785;DHT22;41709;52.536;5.688;2023-12-04T02:26:34;2.60;91.60
55785;DHT22;41709;52.536;5.688;2023-12-04T02:29:05;2.70;91.60
55785;DHT22;41709;52.536;5.688;2023-12-04T02:31:32;2.60;91.60
55785;DHT22;41709;52.536;5.688;2023-12-04T02:33:59;2.60;91.60
55785;DHT22;41709;52.536;5.688;2023-12-04T02:36:26;2.60;91.50
55785;DHT22;41709;52.536;5.688;2023-12-04T02:38:52;2.60;91.60
55785;DHT22;41709;52.536;5.688;2023-12-04T02:41:18;2.70;91.50
55785;DHT22;41709;52.536;5.688;2023-12-04T02:43:43;2.60;91.50
55785;DHT22;41709;52.536;5.688;2023-12-04T02:46:09;2.70;91.50
55785;DHT22;41709;52.536;5.688;2023-12-04T02:48:35;2.60;91.50
55785;DHT22;41709;52.536;5.688;2023-12-04T02:51:01;2.60;91.50
55785;DHT22;41709;52.536;5.688;2023-12-04T02:53:26;2.60;91.50
55785;DHT22;41709;52.536;5.688;2023-12-04T02:55:52;2.60;91.50
55785;DHT22;41709;52.536;5.688;2023-12-04T02:58:17;2.60;91.50
55785;DHT22;41709;52.536;5.688;2023-12-04T03:00:43;2.70;91.50
55785;DHT22;41709;52.536;5.688;2023-12-04T03:03:08;2.60;91.50
55785;DHT22;41709;52.536;5.688;2023-12-04T03:05:34;2.60;91.50
55785;DHT22;41709;52.536;5.688;2023-12-04T03:07:59;2.70;91.50
55785;DHT22;41709;52.536;5.688;2023-12-04T03:10:25;2.60;91.40
55785;DHT22;41709;52.536;5.688;2023-12-04T03:12:50;2.70;91.40
55785;DHT22;41709;52.536;5.688;2023-12-04T03:15:15;2.60;91.40
55785;DHT22;41709;52.536;5.688;2023-12-04T03:17:41;2.60;91.40
55785;DHT22;41709;52.536;5.688;2023-12-04T03:20:07;2.70;91.40
55785;DHT22;41709;52.536;5.688;2023-12-04T03:22:34;2.70;91.50
55785;DHT22;41709;52.536;5.688;2023-12-04T03:25:00;2.60;91.40
55785;DHT22;41709;52.536;5.688;2023-12-04T03:27:25;2.60;91.40
55785;DHT22;41709;52.536;5.688;2023-12-04T03:29:50;2.70;91.40
55785;DHT22;41709;52.536;5.688;2023-12-04T03:32:16;2.60;91.40
55785;DHT22;41709;52.536;5.688;2023-12-04T03:34:42;2.70;91.40
55785;DHT22;41709;52.536;5.688;2023-12-04T03:37:07;2.70;91.40
55785;DHT22;41709;52.536;5.688;2023-12-04T03:39:32;2.60;91.30
55785;DHT22;41709;52.536;5.688;2023-12-04T03:41:58;2.60;91.30
55785;DHT22;41709;52.536;5.688;2023-12-04T03:44:24;2.70;91.40
55785;DHT22;41709;52.536;5.688;2023-12-04T03:46:50;2.60;91.30
55785;DHT22;41709;52.536;5.688;2023-12-04T03:49:17;2.60;91.30
55785;DHT22;41709;52.536;5.688;2023-12-04T03:51:42;2.70;91.30
55785;DHT22;41709;52.536;5.688;2023-12-04T03:54:08;2.60;91.30
55785;DHT22;41709;52.536;5.688;2023-12-04T03:56:33;2.60;91.30
55785;DHT22;41709;52.536;5.688;2023-12-04T03:58:58;2.70;91.30
55785;DHT22;41709;52.536;5.688;2023-12-04T04:01:24;2.60;91.20
55785;DHT22;41709;52.536;5.688;2023-12-04T04:03:49;2.70;91.30
55785;DHT22;41709;52.536;5.688;2023-12-04T04:06:15;2.70;91.30
55785;DHT22;41709;52.536;5.688;2023-12-04T04:08:40;2.70;91.20
55785;DHT22;41709;52.536;5.688;2023-12-04T04:11:06;2.70;91.20
55785;DHT22;41709;52.536;5.688;2023-12-04T04:13:31;2.70;91.20
55785;DHT22;41709;52.536;5.688;2023-12-04T04:15:57;2.70;91.10
55785;DHT22;41709;52.536;5.688;2023-12-04T04:18:22;2.60;91.10
55785;DHT22;41709;52.536;5.688;2023-12-04T04:20:47;2.60;91.10
55785;DHT22;41709;52.536;5.688;2023-12-04T04:23:13;2.60;91.10
55785;DHT22;41709;52.536;5.688;2023-12-04T04:25:38;2.70;91.10
55785;DHT22;41709;52.536;5.688;2023-12-04T04:28:04;2.60;91.00
55785;DHT22;41709;52.536;5.688;2023-12-04T04:30:29;2.70;91.10
55785;DHT22;41709;52.536;5.688;2023-12-04T04:32:55;2.70;91.00
55785;DHT22;41709;52.536;5.688;2023-12-04T04:35:20;2.60;91.00
55785;DHT22;41709;52.536;5.688;2023-12-04T04:37:46;2.60;91.00
55785;DHT22;41709;52.536;5.688;2023-12-04T04:40:11;2.60;91.00
55785;DHT22;41709;52.536;5.688;2023-12-04T04:42:37;2.70;91.00
55785;DHT22;41709;52.536;5.688;2023-12-04T04:45:02;2.60;90.90
55785;DHT22;41709;52.536;5.688;2023-12-04T04:47:28;2.60;90.90
55785;DHT22;41709;52.536;5.688;2023-12-04T04:49:53;2.60;90.90
55785;DHT22;41709;52.536;5.688;2023-12-04T04:52:18;2.60;90.90
55785;DHT22;41709;52.536;5.688;2023-12-04T04:54:44;2.60;90.80
55785;DHT22;41709;52.536;5.688;2023-12-04T04:57:10;2.60;90.80
55785;DHT22;41709;52.536;5.688;2023-12-04T04:59:35;2.60;90.80
55785;DHT22;41709;52.536;5.688;2023-12-04T05:02:01;2.60;90.80
55785;DHT22;41709;52.536;5.688;2023-12-04T05:04:26;2.60;90.80
55785;DHT22;41709;52.536;5.688;2023-12-04T05:06:51;2.50;90.70
55785;DHT22;41709;52.536;5.688;2023-12-04T05:09:17;2.50;90.70
55785;DHT22;41709;52.536;5.688;2023-12-04T05:11:42;2.50;90.70
55785;DHT22;41709;52.536;5.688;2023-12-04T05:14:08;2.50;90.70
55785;DHT22;41709;52.536;5.688;2023-12-04T05:16:33;2.50;90.70
55785;DHT22;41709;52.536;5.688;2023-12-04T05:18:59;2.50;90.60
55785;DHT22;41709;52.536;5.688;2023-12-04T05:21:24;2.50;90.60
55785;DHT22;41709;52.536;5.688;2023-12-04T05:23:50;2.50;90.60
55785;DHT22;41709;52.536;5.688;2023-12-04T05:26:15;2.50;90.60
55785;DHT22;41709;52.536;5.688;2023-12-04T05:28:40;2.50;90.60
55785;DHT22;41709;52.536;5.688;2023-12-04T05:31:06;2.40;90.60
55785;DHT22;41709;52.536;5.688;2023-12-04T05:33:31;2.50;90.60
55785;DHT22;41709;52.536;5.688;2023-12-04T05:35:57;2.50;90.60
55785;DHT22;41709;52.536;5.688;2023-12-04T05:38:22;2.40;90.60
55785;DHT22;41709;52.536;5.688;2023-12-04T05:40:48;2.40;90.60
55785;DHT22;41709;52.536;5.688;2023-12-04T05:43:14;2.40;90.60
55785;DHT22;41709;52.536;5.688;2023-12-04T05:45:39;2.40;90.50
55785;DHT22;41709;52.536;5.688;2023-12-04T05:48:05;2.50;90.60
55785;DHT22;41709;52.536;5.688;2023-12-04T05:50:31;2.40;90.50
55785;DHT22;41709;52.536;5.688;2023-12-04T05:52:56;2.40;90.50
55785;DHT22;41709;52.536;5.688;2023-12-04T05:55:22;2.40;90.50
55785;DHT22;41709;52.536;5.688;2023-12-04T05:57:47;2.40;90.50
55785;DHT22;41709;52.536;5.688;2023-12-04T06:00:13;2.40;90.50
55785;DHT22;41709;52.536;5.688;2023-12-04T06:02:42;2.40;90.50
55785;DHT22;41709;52.536;5.688;2023-12-04T06:05:08;2.50;90.60
55785;DHT22;41709;52.536;5.688;2023-12-04T06:07:34;2.40;90.50
55785;DHT22;41709;52.536;5.688;2023-12-04T06:09:59;2.40;90.50
55785;DHT22;41709;52.536;5.688;2023-12-04T06:12:25;2.40;90.50
55785;DHT22;41709;52.536;5.688;2023-12-04T06:14:50;2.40;90.50
55785;DHT22;41709;52.536;5.688;2023-12-04T06:17:16;2.40;90.50
55785;DHT22;41709;52.536;5.688;2023-12-04T06:19:41;2.40;90.50
55785;DHT22;41709;52.536;5.688;2023-12-04T06:22:07;2.40;90.50
55785;DHT22;41709;52.536;5.688;2023-12-04T06:24:32;2.40;90.50
55785;DHT22;41709;52.536;5.688;2023-12-04T06:26:58;2.40;90.50
55785;DHT22;41709;52.536;5.688;2023-12-04T06:29:24;2.40;90.50
55785;DHT22;41709;52.536;5.688;2023-12-04T06:31:50;2.40;90.50
55785;DHT22;41709;52.536;5.688;2023-12-04T06:34:15;2.40;90.40
55785;DHT22;41709;52.536;5.688;2023-12-04T06:36:41;2.40;90.40
55785;DHT22;41709;52.536;5.688;2023-12-04T06:39:10;2.40;90.40
55785;DHT22;41709;52.536;5.688;2023-12-04T06:41:40;2.40;90.40
55785;DHT22;41709;52.536;5.688;2023-12-04T06:44:06;2.40;90.40
55785;DHT22;41709;52.536;5.688;2023-12-04T06:46:31;2.40;90.40
55785;DHT22;41709;52.536;5.688;2023-12-04T06:49:00;2.40;90.40
55785;DHT22;41709;52.536;5.688;2023-12-04T06:51:25;2.40;90.40
55785;DHT22;41709;52.536;5.688;2023-12-04T06:53:51;2.40;90.40
55785;DHT22;41709;52.536;5.688;2023-12-04T06:56:17;2.40;90.30
55785;DHT22;41709;52.536;5.688;2023-12-04T06:58:42;2.40;90.30
55785;DHT22;41709;52.536;5.688;2023-12-04T07:01:08;2.40;90.30
55785;DHT22;41709;52.536;5.688;2023-12-04T07:03:33;2.40;90.20
55785;DHT22;41709;52.536;5.688;2023-12-04T07:05:59;2.40;90.20
55785;DHT22;41709;52.536;5.688;2023-12-04T07:08:25;2.40;90.20
55785;DHT22;41709;52.536;5.688;2023-12-04T07:10:51;2.40;90.20
55785;DHT22;41709;52.536;5.688;2023-12-04T07:13:16;2.40;90.20
55785;DHT22;41709;52.536;5.688;2023-12-04T07:15:42;2.40;90.10
55785;DHT22;41709;52.536;5.688;2023-12-04T07:18:07;2.40;90.10
55785;DHT22;41709;52.536;5.688;2023-12-04T07:20:33;2.50;90.10
55785;DHT22;41709;52.536;5.688;2023-12-04T07:22:59;2.50;90.10
55785;DHT22;41709;52.536;5.688;2023-12-04T07:25:24;2.40;90.10
55785;DHT22;41709;52.536;5.688;2023-12-04T07:27:50;2.40;90.00
55785;DHT22;41709;52.536;5.688;2023-12-04T07:30:15;2.40;90.00
55785;DHT22;41709;52.536;5.688;2023-12-04T07:32:41;2.50;89.90
55785;DHT22;41709;52.536;5.688;2023-12-04T07:35:07;2.40;89.80
55785;DHT22;41709;52.536;5.688;2023-12-04T07:37:32;2.50;89.90
55785;DHT22;41709;52.536;5.688;2023-12-04T07:39:58;2.40;89.80
55785;DHT22;41709;52.536;5.688;2023-12-04T07:42:24;2.50;89.90
55785;DHT22;41709;52.536;5.688;2023-12-04T07:44:49;2.50;89.70
55785;DHT22;41709;52.536;5.688;2023-12-04T07:47:15;2.50;89.70
55785;DHT22;41709;52.536;5.688;2023-12-04T07:49:44;2.50;89.60
55785;DHT22;41709;52.536;5.688;2023-12-04T07:52:10;2.50;89.60
55785;DHT22;41709;52.536;5.688;2023-12-04T07:54:36;2.50;89.60
55785;DHT22;41709;52.536;5.688;2023-12-04T07:57:02;2.50;89.50
55785;DHT22;41709;52.536;5.688;2023-12-04T07:59:28;2.50;89.40
55785;DHT22;41709;52.536;5.688;2023-12-04T08:01:53;2.50;89.30
55785;DHT22;41709;52.536;5.688;2023-12-04T08:04:18;2.50;89.30
55785;DHT22;41709;52.536;5.688;2023-12-04T08:06:44;2.50;89.20
55785;DHT22;41709;52.536;5.688;2023-12-04T08:09:09;2.50;89.20
55785;DHT22;41709;52.536;5.688;2023-12-04T08:11:35;2.50;89.10
55785;DHT22;41709;52.536;5.688;2023-12-04T08:14:01;2.50;89.10
55785;DHT22;41709;52.536;5.688;2023-12-04T08:16:26;2.50;89.10
55785;DHT22;41709;52.536;5.688;2023-12-04T08:18:54;2.50;89.00
55785;DHT22;41709;52.536;5.688;2023-12-04T08:21:19;2.50;88.80
55785;DHT22;41709;52.536;5.688;2023-12-04T08:23:45;2.60;88.90
55785;DHT22;41709;52.536;5.688;2023-12-04T08:26:11;2.50;88.80
55785;DHT22;41709;52.536;5.688;2023-12-04T08:28:36;2.50;88.70
55785;DHT22;41709;52.536;5.688;2023-12-04T08:31:07;2.60;88.70
55785;DHT22;41709;52.536;5.688;2023-12-04T08:33:33;2.60;88.60
55785;DHT22;41709;52.536;5.688;2023-12-04T08:36:00;2.60;88.30
55785;DHT22;41709;52.536;5.688;2023-12-04T08:38:25;2.60;88.30
55785;DHT22;41709;52.536;5.688;2023-12-04T08:40:51;2.60;88.10
55785;DHT22;41709;52.536;5.688;2023-12-04T08:43:16;2.70;88.00
55785;DHT22;41709;52.536;5.688;2023-12-04T08:45:42;2.60;87.90
55785;DHT22;41709;52.536;5.688;2023-12-04T08:48:07;2.70;87.70
55785;DHT22;41709;52.536;5.688;2023-12-04T08:50:34;2.70;87.60
55785;DHT22;41709;52.536;5.688;2023-12-04T08:52:59;2.70;87.60
55785;DHT22;41709;52.536;5.688;2023-12-04T08:55:25;2.70;87.40
55785;DHT22;41709;52.536;5.688;2023-12-04T08:57:50;2.70;87.30
55785;DHT22;41709;52.536;5.688;2023-12-04T09:00:16;2.70;87.20
55785;DHT22;41709;52.536;5.688;2023-12-04T09:02:41;2.80;87.00
55785;DHT22;41709;52.536;5.688;2023-12-04T09:05:07;2.80;87.00
55785;DHT22;41709;52.536;5.688;2023-12-04T09:07:32;2.80;86.90
55785;DHT22;41709;52.536;5.688;2023-12-04T09:09:59;2.80;86.70
55785;DHT22;41709;52.536;5.688;2023-12-04T09:12:24;2.80;86.50
55785;DHT22;41709;52.536;5.688;2023-12-04T09:14:50;2.90;86.30
55785;DHT22;41709;52.536;5.688;2023-12-04T09:17:16;2.90;86.20
55785;DHT22;41709;52.536;5.688;2023-12-04T09:19:41;2.90;86.10
55785;DHT22;41709;52.536;5.688;2023-12-04T09:22:07;2.90;85.80
55785;DHT22;41709;52.536;5.688;2023-12-04T09:24:33;2.90;85.60
55785;DHT22;41709;52.536;5.688;2023-12-04T09:26:59;2.90;85.50
55785;DHT22;41709;52.536;5.688;2023-12-04T09:29:24;2.90;85.60
55785;DHT22;41709;52.536;5.688;2023-12-04T09:31:53;2.90;85.40
55785;DHT22;41709;52.536;5.688;2023-12-04T09:34:19;2.90;85.40
55785;DHT22;41709;52.536;5.688;2023-12-04T09:36:46;3.00;85.30
55785;DHT22;41709;52.536;5.688;2023-12-04T09:39:12;3.00;85.00
55785;DHT22;41709;52.536;5.688;2023-12-04T09:41:38;3.00;84.90
55785;DHT22;41709;52.536;5.688;2023-12-04T09:44:03;3.00;84.80
55785;DHT22;41709;52.536;5.688;2023-12-04T09:46:29;3.00;84.80
55785;DHT22;41709;52.536;5.688;2023-12-04T09:48:55;3.00;84.60
55785;DHT22;41709;52.536;5.688;2023-12-04T09:51:22;3.00;84.40
55785;DHT22;41709;52.536;5.688;2023-12-04T09:53:47;3.20;84.30
55785;DHT22;41709;52.536;5.688;2023-12-04T09:56:13;3.10;84.30
55785;DHT22;41709;52.536;5.688;2023-12-04T09:58:40;3.10;84.20
55785;DHT22;41709;52.536;5.688;2023-12-04T10:01:06;3.00;84.00
55785;DHT22;41709;52.536;5.688;2023-12-04T10:03:32;3.10;84.00
55785;DHT22;41709;52.536;5.688;2023-12-04T10:05:58;3.00;83.80
55785;DHT22;41709;52.536;5.688;2023-12-04T10:08:24;3.10;83.80
55785;DHT22;41709;52.536;5.688;2023-12-04T10:10:50;3.10;83.80
55785;DHT22;41709;52.536;5.688;2023-12-04T10:13:15;3.10;84.00
55785;DHT22;41709;52.536;5.688;2023-12-04T10:15:47;3.10;83.80
55785;DHT22;41709;52.536;5.688;2023-12-04T10:18:26;3.10;83.80
55785;DHT22;41709;52.536;5.688;2023-12-04T10:20:52;3.10;83.80
55785;DHT22;41709;52.536;5.688;2023-12-04T10:23:18;3.20;83.80
55785;DHT22;41709;52.536;5.688;2023-12-04T10:25:44;3.20;83.80
55785;DHT22;41709;52.536;5.688;2023-12-04T10:28:12;3.20;83.80
55785;DHT22;41709;52.536;5.688;2023-12-04T10:30:38;3.20;83.80
55785;DHT22;41709;52.536;5.688;2023-12-04T10:33:04;3.20;83.80
55785;DHT22;41709;52.536;5.688;2023-12-04T10:35:34;3.20;83.80
55785;DHT22;41709;52.536;5.688;2023-12-04T10:38:04;3.30;83.90
55785;DHT22;41709;52.536;5.688;2023-12-04T10:40:30;3.30;83.90
55785;DHT22;41709;52.536;5.688;2023-12-04T10:45:40;3.30;83.90
55785;DHT22;41709;52.536;5.688;2023-12-04T10:48:06;3.40;84.00
55785;DHT22;41709;52.536;5.688;2023-12-04T10:50:32;3.40;84.00
55785;DHT22;41709;52.536;5.688;2023-12-04T10:52:59;3.40;84.00
55785;DHT22;41709;52.536;5.688;2023-12-04T10:55:26;3.50;84.10
55785;DHT22;41709;52.536;5.688;2023-12-04T10:57:51;3.50;84.00
55785;DHT22;41709;52.536;5.688;2023-12-04T11:00:19;3.50;83.90
55785;DHT22;41709;52.536;5.688;2023-12-04T11:02:45;3.60;83.70
55785;DHT22;41709;52.536;5.688;2023-12-04T11:05:13;3.70;83.70
55785;DHT22;41709;52.536;5.688;2023-12-04T11:07:48;3.60;83.60
55785;DHT22;41709;52.536;5.688;2023-12-04T11:10:14;3.70;83.60
55785;DHT22;41709;52.536;5.688;2023-12-04T11:12:42;3.80;83.70
55785;DHT22;41709;52.536;5.688;2023-12-04T11:15:09;3.70;83.60
55785;DHT22;41709;52.536;5.688;2023-12-04T11:17:37;3.80;83.60
55785;DHT22;41709;52.536;5.688;2023-12-04T11:20:13;3.80;83.50
55785;DHT22;41709;52.536;5.688;2023-12-04T11:22:41;3.80;83.40
55785;DHT22;41709;52.536;5.688;2023-12-04T11:25:08;3.80;83.20
55785;DHT22;41709;52.536;5.688;2023-12-04T11:27:34;3.80;83.10
55785;DHT22;41709;52.536;5.688;2023-12-04T11:30:00;3.80;82.80
55785;DHT22;41709;52.536;5.688;2023-12-04T11:32:28;3.80;82.70
55785;DHT22;41709;52.536;5.688;2023-12-04T11:34:54;3.80;82.70
55785;DHT22;41709;52.536;5.688;2023-12-04T11:37:20;3.90;82.90
55785;DHT22;41709;52.536;5.688;2023-12-04T11:39:51;3.90;82.80
55785;DHT22;41709;52.536;5.688;2023-12-04T11:42:18;3.90;82.80
55785;DHT22;41709;52.536;5.688;2023-12-04T11:44:44;3.90;82.70
55785;DHT22;41709;52.536;5.688;2023-12-04T11:47:09;3.90;82.60
55785;DHT22;41709;52.536;5.688;2023-12-04T11:49:36;3.90;82.30
55785;DHT22;41709;52.536;5.688;2023-12-04T11:52:05;3.90;82.30
55785;DHT22;41709;52.536;5.688;2023-12-04T11:54:55;3.90;82.20
55785;DHT22;41709;52.536;5.688;2023-12-04T11:59:42;3.90;82.10
55785;DHT22;41709;52.536;5.688;2023-12-04T12:02:07;3.90;82.00
55785;DHT22;41709;52.536;5.688;2023-12-04T12:04:33;3.90;82.00
55785;DHT22;41709;52.536;5.688;2023-12-04T12:06:59;3.90;82.00
55785;DHT22;41709;52.536;5.688;2023-12-04T12:09:27;3.90;81.90
55785;DHT22;41709;52.536;5.688;2023-12-04T12:11:53;3.90;82.00
55785;DHT22;41709;52.536;5.688;2023-12-04T12:14:20;3.90;82.00
55785;DHT22;41709;52.536;5.688;2023-12-04T12:16:46;3.90;82.00
55785;DHT22;41709;52.536;5.688;2023-12-04T12:19:11;3.90;82.20
55785;DHT22;41709;52.536;5.688;2023-12-04T12:21:37;3.90;82.10
55785;DHT22;41709;52.536;5.688;2023-12-04T12:24:02;3.90;82.10
55785;DHT22;41709;52.536;5.688;2023-12-04T12:26:30;3.90;82.10
55785;DHT22;41709;52.536;5.688;2023-12-04T12:28:55;3.90;81.90
55785;DHT22;41709;52.536;5.688;2023-12-04T12:31:21;3.90;81.70
55785;DHT22;41709;52.536;5.688;2023-12-04T12:33:46;3.90;81.60
55785;DHT22;41709;52.536;5.688;2023-12-04T12:36:12;4.10;81.50
55785;DHT22;41709;52.536;5.688;2023-12-04T12:38:38;3.90;81.20
55785;DHT22;41709;52.536;5.688;2023-12-04T12:41:07;3.90;81.30
55785;DHT22;41709;52.536;5.688;2023-12-04T12:43:33;3.90;81.20
55785;DHT22;41709;52.536;5.688;2023-12-04T12:45:59;3.90;81.30
55785;DHT22;41709;52.536;5.688;2023-12-04T12:48:26;3.90;81.30
55785;DHT22;41709;52.536;5.688;2023-12-04T12:50:52;3.90;81.40
55785;DHT22;41709;52.536;5.688;2023-12-04T12:53:20;3.90;81.20
55785;DHT22;41709;52.536;5.688;2023-12-04T12:55:45;3.90;81.20
55785;DHT22;41709;52.536;5.688;2023-12-04T12:58:12;3.90;81.10
55785;DHT22;41709;52.536;5.688;2023-12-04T13:00:41;3.90;81.20
55785;DHT22;41709;52.536;5.688;2023-12-04T13:03:14;3.90;81.30
55785;DHT22;41709;52.536;5.688;2023-12-04T13:05:42;3.90;81.40
55785;DHT22;41709;52.536;5.688;2023-12-04T13:08:07;3.90;81.40
55785;DHT22;41709;52.536;5.688;2023-12-04T13:10:33;3.90;81.20
55785;DHT22;41709;52.536;5.688;2023-12-04T13:12:58;3.80;81.10
55785;DHT22;41709;52.536;5.688;2023-12-04T13:15:25;3.80;80.80
55785;DHT22;41709;52.536;5.688;2023-12-04T13:17:51;3.80;80.70
55785;DHT22;41709;52.536;5.688;2023-12-04T13:20:16;3.80;80.90
55785;DHT22;41709;52.536;5.688;2023-12-04T13:22:43;3.80;80.90
55785;DHT22;41709;52.536;5.688;2023-12-04T13:25:08;3.80;81.10
55785;DHT22;41709;52.536;5.688;2023-12-04T13:27:35;3.90;81.30
55785;DHT22;41709;52.536;5.688;2023-12-04T13:30:07;3.90;81.40
55785;DHT22;41709;52.536;5.688;2023-12-04T13:32:36;3.90;81.40
55785;DHT22;41709;52.536;5.688;2023-12-04T13:35:02;3.90;81.40
55785;DHT22;41709;52.536;5.688;2023-12-04T13:37:27;3.90;81.30
55785;DHT22;41709;52.536;5.688;2023-12-04T13:39:53;3.90;81.00
55785;DHT22;41709;52.536;5.688;2023-12-04T13:42:23;4.00;81.20
55785;DHT22;41709;52.536;5.688;2023-12-04T13:45:08;3.90;80.80
55785;DHT22;41709;52.536;5.688;2023-12-04T13:47:38;4.00;80.90
55785;DHT22;41709;52.536;5.688;2023-12-04T13:50:05;4.00;80.70
55785;DHT22;41709;52.536;5.688;2023-12-04T13:52:31;4.00;80.60
55785;DHT22;41709;52.536;5.688;2023-12-04T13:54:59;4.00;80.60
55785;DHT22;41709;52.536;5.688;2023-12-04T13:57:25;4.00;80.50
55785;DHT22;41709;52.536;5.688;2023-12-04T13:59:58;4.00;80.50
55785;DHT22;41709;52.536;5.688;2023-12-04T14:02:24;4.10;80.40
55785;DHT22;41709;52.536;5.688;2023-12-04T14:04:49;4.10;80.20
55785;DHT22;41709;52.536;5.688;2023-12-04T14:07:15;4.00;79.80
55785;DHT22;41709;52.536;5.688;2023-12-04T14:09:41;4.00;79.90
55785;DHT22;41709;52.536;5.688;2023-12-04T14:12:07;4.00;80.00
55785;DHT22;41709;52.536;5.688;2023-12-04T14:14:32;4.00;80.10
55785;DHT22;41709;52.536;5.688;2023-12-04T14:17:00;4.10;80.20
55785;DHT22;41709;52.536;5.688;2023-12-04T14:19:28;4.00;80.10
55785;DHT22;41709;52.536;5.688;2023-12-04T14:21:54;4.00;80.10
55785;DHT22;41709;52.536;5.688;2023-12-04T14:24:19;4.00;80.30
55785;DHT22;41709;52.536;5.688;2023-12-04T14:26:47;4.00;80.40
55785;DHT22;41709;52.536;5.688;2023-12-04T14:29:12;4.00;80.30
55785;DHT22;41709;52.536;5.688;2023-12-04T14:31:38;4.00;80.40
55785;DHT22;41709;52.536;5.688;2023-12-04T14:34:04;4.00;80.40
55785;DHT22;41709;52.536;5.688;2023-12-04T14:36:29;4.00;80.40
55785;DHT22;41709;52.536;5.688;2023-12-04T14:38:58;4.00;80.40
55785;DHT22;41709;52.536;5.688;2023-12-04T14:41:24;4.00;81.20
55785;DHT22;41709;52.536;5.688;2023-12-04T14:43:50;4.00;80.50
55785;DHT22;41709;52.536;5.688;2023-12-04T14:46:16;4.00;80.60
55785;DHT22;41709;52.536;5.688;2023-12-04T14:48:41;4.00;80.70
55785;DHT22;41709;52.536;5.688;2023-12-04T14:51:07;4.00;80.70
55785;DHT22;41709;52.536;5.688;2023-12-04T14:53:36;4.00;80.70
55785;DHT22;41709;52.536;5.688;2023-12-04T14:56:36;4.00;80.70
55785;DHT22;41709;52.536;5.688;2023-12-04T14:59:01;3.90;80.60
55785;DHT22;41709;52.536;5.688;2023-12-04T15:01:56;3.90;80.50
55785;DHT22;41709;52.536;5.688;2023-12-04T15:04:33;3.90;80.60
55785;DHT22;41709;52.536;5.688;2023-12-04T15:07:37;3.90;80.50
55785;DHT22;41709;52.536;5.688;2023-12-04T15:10:21;3.70;80.40
55785;DHT22;41709;52.536;5.688;2023-12-04T15:13:05;3.80;80.50
55785;DHT22;41709;52.536;5.688;2023-12-04T15:15:50;3.80;80.60
55785;DHT22;41709;52.536;5.688;2023-12-04T15:18:34;3.80;80.70
55785;DHT22;41709;52.536;5.688;2023-12-04T15:20:59;3.80;80.90
55785;DHT22;41709;52.536;5.688;2023-12-04T15:23:25;3.80;81.00
55785;DHT22;41709;52.536;5.688;2023-12-04T15:25:50;3.80;81.00
55785;DHT22;41709;52.536;5.688;2023-12-04T15:28:15;3.80;81.00
55785;DHT22;41709;52.536;5.688;2023-12-04T15:30:41;3.80;81.10
55785;DHT22;41709;52.536;5.688;2023-12-04T15:33:07;3.80;81.20
55785;DHT22;41709;52.536;5.688;2023-12-04T15:35:32;3.70;81.20
55785;DHT22;41709;52.536;5.688;2023-12-04T15:37:58;3.70;81.20
55785;DHT22;41709;52.536;5.688;2023-12-04T15:40:23;3.70;81.40
55785;DHT22;41709;52.536;5.688;2023-12-04T15:42:49;3.70;81.50
55785;DHT22;41709;52.536;5.688;2023-12-04T15:45:14;3.60;81.50